Historyczne dane pomiarowe

Dodano dane terminowe – wersja testowa.

Dane z okresu 1951-2019

Wersja bazy: 1.34 [2019-03-16, lista zmian], aktualizacja planowana na 2019-04-15

Dane meteo z obszaru Polski uzyskane na podstawie danych udostępnionych przez Instytut Meteorologii i Gospodarki Wodnej – Państwowy Instytut Badawczy.

 

Wybierz Datę:    

       

TemperaturaWilgotnośćWiatrCiśnienieOpadyŚniegCzas trwania zjawisk
 Stacja t tx tn tng RH VA  wxwx mslp ppp RRR   cm mm wxwxwxwxwxwxwx
2019-07-25 20.2 27.9 11.4 9.1 68.5- 1.3 1.3---- 0.0------------
2019-07-24 20.5 25.8 15.3 14.4 79.8- 5.7 1.3---- 0.0------------
2019-07-23 17.9 22.2 15.4 14.6 79.5- 8.0 0.3---- 0.7------------
2019-07-22 18.1 25.6 12.0 11.6 72.8- 6.3 1.3---- 0.0------------
2019-07-21 20.8 30.7 14.1 12.2 86.0- 5.7 3.0---- 9.3------------
2019-07-20 20.4 28.3 13.3 12.4 79.8- 5.7 1.0---- 0.0------------
2019-07-19 16.7 26.9 6.4 6.7 71.5- 3.7 1.3---- 4.1------------
2019-07-18 15.8 23.2 6.4 4.5 64.5- 3.0 1.0---- 0.0------------
2019-07-17 16.0 22.0 9.8 7.6 67.3- 4.3 2.0---- 0.0------------
2019-07-16 14.8 23.0 7.0 5.5 69.0- 3.0 2.3---- 0.0------------
2019-07-15 14.3 22.0 6.2 4.7 74.3- 4.0 1.7---- 0.0------------
2019-07-14 16.1 20.1 13.4 12.5 84.5- 5.7 1.7---- 4.2------------
2019-07-13 16.3 20.1 13.2 12.1 85.8- 7.0 1.0---- 13.4------------
2019-07-12 14.2 22.3 4.5 2.4 66.0- 5.0 1.7---- 7.1------------
2019-07-11 14.4 19.0 9.4 7.2 78.8- 4.0 2.3---- 13.1------------
2019-07-10 13.8 19.6 8.4 5.2 65.8- 7.7 1.0---- 2.6------------
2019-07-09 12.9 19.2 4.0 1.8 62.5- 5.0 2.0---- 0.0------------
2019-07-08 13.2 19.0 6.8 3.7 68.3- 6.7 2.0---- 0.0------------
2019-07-07 18.6 25.0 13.9 10.1 72.3- 4.7 3.0---- 0.0------------
2019-07-06 21.0 28.5 12.4 9.7 53.0- 2.3 1.7---- 0.0------------
2019-07-05 15.9 23.4 6.2 4.2 64.3- 6.3 2.3---- 0.0------------
2019-07-04 14.7 22.9 2.9 1.4 55.0- 0.0 1.7---- 0.0------------
2019-07-03 16.2 21.6 7.8 5.7 51.5- 1.0 2.3---- 0.0------------
2019-07-02 21.7 25.6 18.1 16.6 63.8- 4.3 1.7---- 0.0------------
2019-07-01 24.4 34.6 18.7 17.6 55.0- 3.7 4.3---- 2.1------------
2019-06-30 22.8 32.7 9.8 8.0 50.8- 0.0 2.7---- 0.0------------
2019-06-29 19.9 25.6 12.0 11.0 52.5- 1.3 1.7---- 0.0------------
2019-06-28 17.6 28.4 8.0 5.7 67.8- 3.7 1.7---- 0.0------------
2019-06-27 24.6 28.8 21.6 20.5 55.0- 0.7 2.7---- 0.0------------
2019-06-26 25.5 33.2 16.9 14.6 63.5- 1.3 2.3---- 0.0------------
2019-06-25 22.5 31.7 11.4 10.2 69.8- 0.7 1.3---- 0.0------------
2019-06-24 21.1 25.6 16.4 15.7 72.8- 2.0 2.0---- 0.0------------
2019-06-23 19.9 23.6 16.2 15.8 70.5- 7.0 2.0---- 0.0------------
2019-06-22 18.6 24.4 13.4 12.0 86.8- 5.7 1.7---- 1.8------------
2019-06-21 20.2 26.0 14.9 14.6 82.3- 5.0 1.3---- 2.1------------
2019-06-20 21.4 25.4 18.2 17.6 72.0- 7.3 1.7---- 0.6------------
2019-06-19 21.2 28.7 13.9 12.4 80.0- 5.3 1.3---- 0.0------------
2019-06-18 18.6 26.0 9.1 8.7 70.8- 2.3 2.0---- 0.0------------
2019-06-17 18.4 22.8 13.8 13.7 72.5- 6.7 1.7---- 0.0------------
2019-06-16 20.8 27.7 13.6 12.8 73.5- 4.7 2.0---- 0.0------------
2019-06-15 24.6 33.1 14.5 13.8 59.5- 2.3 2.0---- 0.0------------
2019-06-14 21.7 28.7 11.7 9.9 77.0- 3.7 2.0---- 0.0------------
2019-06-13 24.9 33.2 14.2 14.0 51.3- 3.3 1.7---- 0.0------------
2019-06-12 23.2 31.2 12.4 9.3 56.8- 0.7 1.7---- 0.0------------
2019-06-11 22.0 31.9 13.2 8.9 66.8- 1.3 1.7---- 0.0------------
2019-06-10 22.0 30.8 11.4 8.2 63.8- 1.0 1.7---- 0.0------------
2019-06-09 17.4 25.0 7.8 4.4 69.8- 1.7 1.3---- 0.0------------
2019-06-08 19.3 27.1 11.8 8.1 72.5- 3.7 2.0---- 0.0------------
2019-06-07 18.6 27.3 11.4 8.0 84.8- 6.0 1.3---- 0.0------------
2019-06-06 18.7 26.1 10.3 6.7 65.8- 3.3 1.3---- 2.8------------
2019-06-05 18.6 26.6 10.0 6.7 69.3- 2.0 1.7---- 0.0------------
2019-06-04 19.1 27.6 8.0 6.3 64.5- 1.3 1.0---- 0.0------------
2019-06-03 18.1 26.1 8.0 4.8 65.5- 0.7 2.3---- 0.0------------
2019-06-02 17.4 25.3 8.5 5.4 71.8- 1.3 1.3---- 0.0------------
2019-06-01 14.7 23.0 6.3 3.8 78.3- 4.0 2.0---- 0.0------------
2019-05-31 13.9 20.6 7.4 6.4 68.0- 3.0 1.3---- 0.0------------
2019-05-30 9.2 11.5 7.5 5.8 86.3- 8.0 1.7---- 7.4------------
2019-05-29 12.1 16.9 9.9 8.7 93.0- 8.0 2.3---- 1.4------------
2019-05-28 16.1 20.3 11.4 8.2 74.8- 5.7 1.3---- 12.3------------
2019-05-27 16.5 24.8 8.0 4.1 71.0- 7.0 1.3---- 0.0------------
99.4 ms

 

Źródłem pochodzenia danych jest Instytut Meteorologii i Gospodarki Wodnej – Państwowy Instytut Badawczy. Dane Instytutu Meteorologii i Gospodarki Wodnej – Państwowego Instytutu Badawczego zostały przetworzone.

Dane źródłowe można odnaleźć na stronie https://dane.imgw.pl